createdAt,value
2018-01-05T00:01:37.667Z,2.80
2018-01-05T00:04:05.107Z,2.13
2018-01-05T00:06:32.587Z,2.97
2018-01-05T00:09:00.030Z,2.23
2018-01-05T00:11:27.535Z,2.10
2018-01-05T00:13:55.007Z,2.07
2018-01-05T00:16:22.433Z,2.63
2018-01-05T00:18:49.898Z,2.53
2018-01-05T00:21:17.338Z,2.40
2018-01-05T00:23:44.785Z,2.73
2018-01-05T00:26:12.219Z,2.47
2018-01-05T00:28:39.674Z,3.83
2018-01-05T00:31:07.127Z,2.40
2018-01-05T00:33:34.589Z,4.50
2018-01-05T00:36:02.032Z,3.13
2018-01-05T00:38:29.484Z,2.93
2018-01-05T00:40:56.928Z,4.63
2018-01-05T00:43:24.398Z,2.23
2018-01-05T00:45:51.893Z,2.57
2018-01-05T00:48:19.341Z,3.10
2018-01-05T00:50:46.806Z,2.90
2018-01-05T00:53:14.251Z,3.60
2018-01-05T00:55:41.710Z,3.17
2018-01-05T00:58:09.147Z,3.17
2018-01-05T01:00:36.601Z,3.00
2018-01-05T01:03:04.036Z,2.93
2018-01-05T01:05:31.567Z,3.60
2018-01-05T01:07:59.025Z,3.60
2018-01-05T01:10:26.575Z,2.90
2018-01-05T01:12:54.007Z,2.07
2018-01-05T01:15:21.497Z,3.47
2018-01-05T01:17:48.933Z,4.20
2018-01-05T01:20:32.872Z,2.90
2018-01-05T01:23:00.344Z,2.07
2018-01-05T01:25:27.796Z,3.30
2018-01-05T01:27:55.258Z,2.50
2018-01-05T01:30:22.715Z,3.23
2018-01-05T01:32:50.268Z,3.90
2018-01-05T01:35:17.706Z,3.00
2018-01-05T01:37:45.181Z,1.97
2018-01-05T01:40:12.627Z,3.10
2018-01-05T01:42:40.079Z,3.20
2018-01-05T01:45:07.524Z,3.23
2018-01-05T01:47:35.003Z,3.33
2018-01-05T01:50:02.451Z,2.13
2018-01-05T01:52:29.947Z,3.30
2018-01-05T01:54:57.397Z,2.87
2018-01-05T01:57:25.048Z,2.70
2018-01-05T01:59:52.506Z,4.10
2018-01-05T02:02:20.036Z,2.80
2018-01-05T02:04:47.521Z,3.37
2018-01-05T02:07:14.971Z,2.53
2018-01-05T02:09:42.476Z,3.63
2018-01-05T02:12:09.933Z,3.53
2018-01-05T02:14:37.404Z,2.60
2018-01-05T02:17:04.846Z,3.63
2018-01-05T02:19:32.367Z,3.17
2018-01-05T02:21:59.824Z,2.10
2018-01-05T02:24:27.291Z,2.70
2018-01-05T02:26:54.746Z,3.17
2018-01-05T02:29:22.293Z,3.50
2018-01-05T02:31:49.746Z,3.47
2018-01-05T02:34:17.213Z,3.17
2018-01-05T02:36:44.752Z,2.60
2018-01-05T02:39:12.241Z,2.30
2018-01-05T02:41:39.780Z,3.70
2018-01-05T02:44:07.333Z,3.63
2018-01-05T02:46:34.813Z,3.00
2018-01-05T02:49:02.274Z,2.70
2018-01-05T02:51:29.743Z,3.17
2018-01-05T02:53:57.200Z,3.87
2018-01-05T02:56:24.676Z,3.33
2018-01-05T02:58:52.147Z,3.17
2018-01-05T03:01:19.626Z,4.70
2018-01-05T03:03:47.096Z,3.70
2018-01-05T03:06:14.582Z,3.50
2018-01-05T03:08:42.095Z,4.10
2018-01-05T03:11:09.569Z,3.17
2018-01-05T03:13:37.112Z,3.33
2018-01-05T03:16:04.587Z,4.07
2018-01-05T03:18:32.035Z,3.70
2018-01-05T03:20:59.588Z,3.60
2018-01-05T03:23:27.172Z,3.33
2018-01-05T03:25:54.649Z,3.30
2018-01-05T03:28:22.096Z,3.13
2018-01-05T03:30:49.648Z,3.80
2018-01-05T03:33:17.185Z,4.80
2018-01-05T03:35:44.667Z,3.50
2018-01-05T03:38:12.200Z,4.07
2018-01-05T03:40:40.561Z,4.70
2018-01-05T03:43:08.018Z,4.20
2018-01-05T03:45:35.474Z,4.83
2018-01-05T03:48:03.064Z,3.20
2018-01-05T03:50:30.519Z,2.70
2018-01-05T03:52:57.992Z,3.87
2018-01-05T03:55:25.445Z,4.57
2018-01-05T03:57:52.977Z,2.80
2018-01-05T04:00:20.432Z,4.20
2018-01-05T04:02:47.890Z,4.80
2018-01-05T04:05:15.696Z,3.37
2018-01-05T04:07:43.168Z,3.07
2018-01-05T04:10:10.626Z,4.27
2018-01-05T04:12:38.098Z,2.80
2018-01-05T04:15:05.534Z,2.97
2018-01-05T04:17:33.007Z,2.50
2018-01-05T04:20:00.473Z,3.60
2018-01-05T04:22:27.977Z,2.40
2018-01-05T04:24:55.495Z,3.23
2018-01-05T04:27:22.975Z,2.43
2018-01-05T04:29:50.438Z,3.53
2018-01-05T04:32:17.924Z,3.53
2018-01-05T04:34:45.379Z,2.60
2018-01-05T04:37:12.835Z,3.03
2018-01-05T04:39:40.303Z,3.00
2018-01-05T04:42:07.751Z,3.10
2018-01-05T04:44:35.233Z,2.47
2018-01-05T04:47:02.678Z,2.40
2018-01-05T04:49:30.162Z,2.80
2018-01-05T04:51:57.614Z,1.83
2018-01-05T04:54:25.182Z,1.77
2018-01-05T04:56:52.794Z,2.60
2018-01-05T04:59:20.300Z,1.90
2018-01-05T05:01:47.747Z,1.90
2018-01-05T05:04:15.223Z,2.90
2018-01-05T05:06:42.681Z,2.23
2018-01-05T05:09:10.164Z,2.00
2018-01-05T05:11:37.620Z,2.10
2018-01-05T05:14:05.105Z,2.83
2018-01-05T05:16:32.620Z,1.97
2018-01-05T05:19:00.227Z,1.97
2018-01-05T05:21:27.720Z,1.53
2018-01-05T05:23:55.243Z,2.67
2018-01-05T05:26:22.736Z,1.07
2018-01-05T05:28:50.217Z,2.00
2018-01-05T05:31:17.675Z,1.13
2018-01-05T05:33:45.180Z,2.07
2018-01-05T05:36:12.623Z,1.00
2018-01-05T05:38:40.124Z,3.13
2018-01-05T05:41:07.609Z,0.87
2018-01-05T05:43:35.090Z,1.63
2018-01-05T05:46:02.558Z,1.57
2018-01-05T05:48:30.027Z,1.43
2018-01-05T05:50:57.532Z,1.53
2018-01-05T05:53:24.999Z,1.40
2018-01-05T05:55:52.497Z,0.83
2018-01-05T05:58:19.948Z,0.80
2018-01-05T06:00:47.440Z,1.20
2018-01-05T06:03:14.895Z,0.83
2018-01-05T06:05:42.387Z,1.63
2018-01-05T06:08:09.851Z,0.70
2018-01-05T06:10:37.331Z,1.63
2018-01-05T06:13:04.796Z,0.83
2018-01-05T06:15:32.300Z,1.67
2018-01-05T06:17:59.764Z,1.70
2018-01-05T06:20:27.199Z,1.17
2018-01-05T06:22:54.677Z,1.30
2018-01-05T06:25:22.133Z,1.00
2018-01-05T06:27:49.653Z,1.07
2018-01-05T06:30:17.095Z,1.23
2018-01-05T06:32:44.671Z,1.10
2018-01-05T06:35:12.107Z,1.27
2018-01-05T06:37:39.583Z,1.30
2018-01-05T06:40:07.041Z,1.77
2018-01-05T06:42:34.515Z,2.20
2018-01-05T06:45:01.970Z,1.60
2018-01-05T06:47:29.434Z,1.80
2018-01-05T06:49:56.888Z,1.00
2018-01-05T06:52:24.376Z,1.50
2018-01-05T06:54:51.899Z,1.30
2018-01-05T06:57:19.364Z,1.40
2018-01-05T06:59:46.839Z,1.57
2018-01-05T07:02:14.296Z,1.57
2018-01-05T07:04:41.777Z,1.20
2018-01-05T07:07:09.228Z,1.00
2018-01-05T07:09:36.704Z,1.13
2018-01-05T07:12:04.165Z,1.37
2018-01-05T07:14:31.664Z,0.90
2018-01-05T07:16:59.108Z,0.80
2018-01-05T07:19:26.566Z,1.07
2018-01-05T07:21:54.021Z,0.90
2018-01-05T07:24:21.496Z,0.73
2018-01-05T07:26:49.080Z,0.70
2018-01-05T07:29:16.581Z,0.73
2018-01-05T07:31:44.036Z,0.50
2018-01-05T07:34:11.557Z,0.60
2018-01-05T07:36:39.005Z,0.50
2018-01-05T07:39:06.461Z,0.60
2018-01-05T07:41:34.593Z,0.83
2018-01-05T07:44:02.176Z,0.80
2018-01-05T07:46:29.655Z,0.83
2018-01-05T07:48:57.107Z,0.50
2018-01-05T07:51:24.583Z,0.53
2018-01-05T07:53:52.428Z,1.03
2018-01-05T07:56:20.495Z,0.93
2018-01-05T07:58:48.016Z,0.93
2018-01-05T08:01:15.519Z,0.50
2018-01-05T08:03:42.968Z,0.70
2018-01-05T08:06:10.451Z,0.87
2018-01-05T08:08:37.928Z,0.70
2018-01-05T08:11:05.619Z,0.50
2018-01-05T08:13:33.126Z,0.40
2018-01-05T08:16:00.607Z,0.50
2018-01-05T08:18:28.066Z,0.50
2018-01-05T08:20:55.520Z,0.60
2018-01-05T08:23:23.097Z,0.80
2018-01-05T08:25:50.543Z,0.50
2018-01-05T08:28:18.024Z,0.77
2018-01-05T08:30:45.603Z,0.60
2018-01-05T08:33:13.086Z,0.50
2018-01-05T08:35:40.525Z,0.60
2018-01-05T08:38:08.032Z,0.87
2018-01-05T08:40:35.592Z,0.60
2018-01-05T08:43:03.068Z,0.47
2018-01-05T08:45:30.519Z,0.40
2018-01-05T08:47:57.988Z,0.50
2018-01-05T08:50:25.430Z,0.63
2018-01-05T08:52:52.944Z,0.70
2018-01-05T08:55:20.422Z,0.40
2018-01-05T08:57:47.979Z,0.60
2018-01-05T09:00:15.456Z,1.23
2018-01-05T09:02:43.001Z,0.43
2018-01-05T09:05:10.510Z,0.60
2018-01-05T09:07:37.959Z,0.50
2018-01-05T09:10:05.495Z,0.43
2018-01-05T09:12:33.053Z,0.40
2018-01-05T09:15:00.545Z,0.57
2018-01-05T09:17:28.001Z,0.47
2018-01-05T09:19:55.470Z,0.73
2018-01-05T09:22:22.936Z,0.67
2018-01-05T09:24:50.419Z,0.50
2018-01-05T09:27:18.050Z,0.80
2018-01-05T09:29:45.520Z,0.50
2018-01-05T09:32:12.972Z,1.43
2018-01-05T09:34:40.443Z,0.50
2018-01-05T09:37:07.882Z,0.43
2018-01-05T09:39:35.357Z,0.83
2018-01-05T09:42:02.798Z,0.70
2018-01-05T09:44:30.246Z,0.40
2018-01-05T09:46:57.716Z,0.40
2018-01-05T09:49:25.166Z,0.70
2018-01-05T09:51:52.745Z,0.63
2018-01-05T09:54:20.233Z,0.97
2018-01-05T09:56:47.755Z,0.40
2018-01-05T09:59:15.194Z,0.40
2018-01-05T10:01:42.674Z,0.50
2018-01-05T10:04:10.139Z,0.50
2018-01-05T10:06:37.768Z,0.60
2018-01-05T10:09:05.224Z,0.40
2018-01-05T10:11:32.846Z,0.40
2018-01-05T10:14:00.672Z,0.30
2018-01-05T10:16:28.142Z,0.43
2018-01-05T10:18:55.617Z,0.40
2018-01-05T10:21:23.129Z,0.40
2018-01-05T10:23:50.606Z,0.50
2018-01-05T10:26:18.059Z,0.40
2018-01-05T10:28:45.542Z,0.80
2018-01-05T10:31:13.016Z,0.40
2018-01-05T10:33:40.501Z,0.50
2018-01-05T10:36:07.981Z,0.47
2018-01-05T10:38:35.446Z,0.50
2018-01-05T10:41:03.012Z,0.40
2018-01-05T10:43:30.487Z,0.87
2018-01-05T10:45:57.944Z,0.70
2018-01-05T10:48:25.423Z,0.60
2018-01-05T10:50:52.904Z,0.77
2018-01-05T10:53:20.385Z,0.40
2018-01-05T10:55:47.946Z,1.23
2018-01-05T10:58:15.550Z,0.40
2018-01-05T11:00:43.011Z,0.30
2018-01-05T11:03:10.480Z,0.40
2018-01-05T11:05:37.955Z,0.30
2018-01-05T11:08:05.417Z,0.30
2018-01-05T11:10:32.892Z,0.80
2018-01-05T11:13:00.349Z,0.30
2018-01-05T11:15:27.842Z,0.30
2018-01-05T11:17:55.292Z,0.30
2018-01-05T11:20:22.788Z,0.33
2018-01-05T11:22:50.238Z,22.80
2018-01-05T11:25:17.704Z,0.40
2018-01-05T11:27:45.169Z,10.50
2018-01-05T11:30:12.676Z,29.30
2018-01-05T11:32:40.205Z,0.50
2018-01-05T11:35:08.045Z,13.20
2018-01-05T11:37:35.495Z,1.10
2018-01-05T11:40:02.976Z,9.10
2018-01-05T11:42:30.471Z,2.20
2018-01-05T11:44:57.911Z,0.40
2018-01-05T11:47:25.441Z,8.43
2018-01-05T11:49:52.897Z,2.23
2018-01-05T11:52:20.367Z,1.50
2018-01-05T11:54:47.917Z,1.70
2018-01-05T11:57:15.425Z,3.17
2018-01-05T11:59:42.928Z,0.70
2018-01-05T12:02:10.400Z,0.80
2018-01-05T12:04:37.855Z,4.50
2018-01-05T12:07:05.316Z,0.57
2018-01-05T12:09:32.771Z,0.40
2018-01-05T12:12:00.216Z,0.60
2018-01-05T12:14:27.688Z,0.40
2018-01-05T12:16:55.230Z,1.00
2018-01-05T12:19:22.793Z,0.60
2018-01-05T12:21:50.384Z,0.73
2018-01-05T12:24:17.873Z,0.50
2018-01-05T12:26:45.312Z,0.60
2018-01-05T12:29:12.770Z,0.50
2018-01-05T12:31:40.226Z,0.83
2018-01-05T12:34:07.700Z,0.47
2018-01-05T12:36:35.153Z,0.60
2018-01-05T12:39:02.628Z,0.50
2018-01-05T12:41:30.080Z,0.50
2018-01-05T12:43:57.560Z,0.80
2018-01-05T12:46:25.137Z,0.53
2018-01-05T12:48:52.583Z,0.70
2018-01-05T12:51:20.064Z,0.50
2018-01-05T12:53:47.605Z,0.40
2018-01-05T12:56:16.020Z,0.50
2018-01-05T12:58:44.746Z,0.60
2018-01-05T13:01:12.271Z,0.50
2018-01-05T13:03:39.726Z,0.83
2018-01-05T13:06:07.231Z,0.60
2018-01-05T13:08:34.675Z,0.70
2018-01-05T13:11:02.157Z,0.87
2018-01-05T13:13:29.597Z,0.50
2018-01-05T13:15:57.501Z,0.70
2018-01-05T13:18:24.952Z,0.47
2018-01-05T13:20:52.394Z,1.13
2018-01-05T13:23:19.863Z,0.70
2018-01-05T13:25:47.319Z,0.87
2018-01-05T13:28:14.836Z,0.97
2018-01-05T13:30:42.278Z,0.93
2018-01-05T13:33:09.751Z,3.83
2018-01-05T13:35:37.202Z,3.60
2018-01-05T13:38:04.685Z,5.87
2018-01-05T13:40:32.245Z,4.40
2018-01-05T13:42:59.796Z,3.97
2018-01-05T13:45:27.251Z,3.37
2018-01-05T13:47:54.718Z,4.10
2018-01-05T13:50:22.184Z,3.93
2018-01-05T13:52:49.664Z,3.83
2018-01-05T13:55:17.124Z,2.50
2018-01-05T13:57:44.619Z,3.00
2018-01-05T14:00:12.244Z,2.27
2018-01-05T14:02:39.719Z,1.70
2018-01-05T14:05:07.335Z,4.67
2018-01-05T14:07:34.830Z,6.63
2018-01-05T14:10:02.283Z,5.33
2018-01-05T14:12:30.824Z,3.77
2018-01-05T14:14:58.594Z,4.00
2018-01-05T14:17:26.133Z,2.33
2018-01-05T14:19:53.600Z,2.00
2018-01-05T14:22:21.082Z,2.13
2018-01-05T14:24:48.535Z,2.90
2018-01-05T14:27:16.002Z,2.80
2018-01-05T14:29:43.471Z,3.90
2018-01-05T14:32:10.935Z,3.50
2018-01-05T14:34:38.407Z,3.00
2018-01-05T14:37:07.178Z,3.30
2018-01-05T14:39:34.885Z,3.40
2018-01-05T14:42:02.341Z,1.97
2018-01-05T14:44:29.799Z,1.60
2018-01-05T14:46:57.262Z,1.37
2018-01-05T14:49:24.699Z,1.33
2018-01-05T14:51:52.227Z,3.60
2018-01-05T14:54:19.679Z,3.50
2018-01-05T14:56:47.187Z,7.87
2018-01-05T14:59:14.639Z,6.40
2018-01-05T15:01:42.103Z,6.90
2018-01-05T15:04:09.553Z,5.80
2018-01-05T15:06:37.022Z,4.20
2018-01-05T15:09:04.459Z,2.33
2018-01-05T15:11:31.915Z,1.03
2018-01-05T15:13:59.367Z,1.20
2018-01-05T15:16:26.822Z,1.07
2018-01-05T15:18:54.267Z,1.80
2018-01-05T15:21:21.740Z,2.57
2018-01-05T15:23:49.193Z,4.37
2018-01-05T15:26:16.659Z,2.10
2018-01-05T15:28:44.107Z,2.60
2018-01-05T15:31:11.821Z,1.43
2018-01-05T15:33:39.289Z,1.50
2018-01-05T15:36:06.731Z,2.57
2018-01-05T15:38:34.195Z,4.20
2018-01-05T15:41:01.738Z,4.20
2018-01-05T15:43:29.203Z,2.93
2018-01-05T15:45:56.712Z,2.10
2018-01-05T15:48:24.251Z,1.23
2018-01-05T15:50:51.699Z,1.30
2018-01-05T15:53:19.155Z,1.90
2018-01-05T15:55:46.629Z,1.57
2018-01-05T15:58:14.106Z,1.57
2018-01-05T16:00:41.636Z,1.97
2018-01-05T16:03:09.110Z,1.80
2018-01-05T16:05:37.587Z,1.70
2018-01-05T16:08:05.064Z,1.60
2018-01-05T16:10:32.504Z,1.47
2018-01-05T16:12:59.973Z,1.13
2018-01-05T16:15:27.444Z,1.30
2018-01-05T16:17:54.888Z,3.07
2018-01-05T16:20:22.500Z,1.97
2018-01-05T16:22:49.952Z,1.67
2018-01-05T16:25:17.419Z,2.20
2018-01-05T16:27:44.888Z,1.60
2018-01-05T16:30:12.351Z,1.60
2018-01-05T16:32:39.803Z,1.10
2018-01-05T16:35:07.285Z,1.50
2018-01-05T16:37:34.742Z,1.57
2018-01-05T16:40:02.225Z,1.67
2018-01-05T16:42:29.682Z,2.13
2018-01-05T16:44:57.174Z,2.20
2018-01-05T16:47:24.615Z,2.13
2018-01-05T16:49:52.071Z,2.10
2018-01-05T16:52:19.544Z,3.30
2018-01-05T16:54:46.993Z,3.27
2018-01-05T16:57:14.470Z,3.60
2018-01-05T16:59:41.928Z,5.20
2018-01-05T17:02:09.410Z,3.17
2018-01-05T17:04:36.868Z,3.20
2018-01-05T17:07:04.425Z,6.63
2018-01-05T17:09:31.879Z,13.63
2018-01-05T17:11:59.361Z,12.10
2018-01-05T17:14:26.820Z,16.30
2018-01-05T17:16:54.299Z,11.20
2018-01-05T17:19:21.748Z,4.90
2018-01-05T17:21:49.181Z,1.80
2018-01-05T17:24:16.646Z,2.70
2018-01-05T17:26:44.112Z,3.40
2018-01-05T17:29:11.589Z,2.50
2018-01-05T17:31:39.032Z,2.97
2018-01-05T17:34:06.506Z,2.27
2018-01-05T17:36:33.961Z,2.97
2018-01-05T17:39:01.483Z,2.47
2018-01-05T17:41:29.012Z,2.60
2018-01-05T17:43:56.480Z,3.23
2018-01-05T17:46:23.920Z,4.40
2018-01-05T17:48:51.403Z,4.70
2018-01-05T17:51:18.848Z,5.50
2018-01-05T17:53:46.325Z,6.10
2018-01-05T17:56:13.850Z,7.13
2018-01-05T17:58:41.290Z,7.13
2018-01-05T18:01:08.797Z,7.57
2018-01-05T18:03:36.242Z,6.90
2018-01-05T18:06:03.747Z,9.30
2018-01-05T18:08:31.235Z,10.23
2018-01-05T18:10:58.700Z,8.47
2018-01-05T18:13:26.151Z,7.20
2018-01-05T18:15:53.610Z,5.80
2018-01-05T18:18:21.047Z,6.20
2018-01-05T18:20:48.517Z,6.50
2018-01-05T18:23:15.989Z,5.30
2018-01-05T18:25:43.464Z,5.83
2018-01-05T18:28:11.000Z,4.93
2018-01-05T18:30:38.486Z,5.80
2018-01-05T18:33:05.989Z,5.10
2018-01-05T18:35:33.564Z,5.03
2018-01-05T18:38:01.010Z,5.57
2018-01-05T18:40:28.630Z,6.33
2018-01-05T18:42:56.110Z,5.10
2018-01-05T18:45:23.584Z,5.00
2018-01-05T18:47:51.050Z,6.53
2018-01-05T18:50:18.541Z,4.03
2018-01-05T18:52:46.110Z,4.53
2018-01-05T18:55:13.568Z,4.67
2018-01-05T18:57:41.030Z,7.00
2018-01-05T19:00:08.481Z,9.23
2018-01-05T19:02:35.960Z,10.47
2018-01-05T19:05:03.447Z,13.33
2018-01-05T19:07:30.915Z,9.17
2018-01-05T19:09:58.363Z,5.80
2018-01-05T19:12:25.872Z,8.00
2018-01-05T19:14:53.332Z,6.60
2018-01-05T19:17:20.846Z,4.23
2018-01-05T19:19:48.291Z,4.40
2018-01-05T19:22:15.802Z,3.50
2018-01-05T19:24:43.269Z,4.00
2018-01-05T19:27:10.715Z,4.10
2018-01-05T19:29:38.205Z,4.30
2018-01-05T19:32:05.674Z,4.83
2018-01-05T19:34:33.134Z,5.77
2018-01-05T19:37:00.597Z,4.60
2018-01-05T19:39:28.073Z,4.67
2018-01-05T19:41:55.546Z,5.37
2018-01-05T19:44:23.025Z,4.20
2018-01-05T19:46:50.529Z,4.73
2018-01-05T19:49:17.988Z,4.37
2018-01-05T19:51:45.442Z,4.60
2018-01-05T19:54:12.925Z,3.83
2018-01-05T19:56:40.366Z,5.30
2018-01-05T19:59:07.954Z,5.30
2018-01-05T20:01:35.637Z,5.60
2018-01-05T20:04:03.101Z,6.03
2018-01-05T20:06:30.696Z,6.27
2018-01-05T20:08:58.188Z,5.40
2018-01-05T20:11:25.692Z,5.70
2018-01-05T20:13:53.166Z,6.97
2018-01-05T20:16:20.636Z,6.87
2018-01-05T20:18:48.089Z,6.83
2018-01-05T20:21:15.649Z,6.93
2018-01-05T20:23:43.184Z,6.83
2018-01-05T20:26:10.698Z,7.40
2018-01-05T20:28:38.146Z,6.80
2018-01-05T20:31:05.620Z,6.93
2018-01-05T20:33:33.111Z,7.43
2018-01-05T20:36:00.550Z,8.10
2018-01-05T20:38:28.029Z,8.53
2018-01-05T20:40:55.490Z,8.57
2018-01-05T20:43:22.973Z,6.53
2018-01-05T20:45:50.444Z,6.90
2018-01-05T20:48:17.912Z,9.10
2018-01-05T20:50:45.408Z,8.53
2018-01-05T20:53:12.880Z,6.77
2018-01-05T20:55:40.423Z,6.40
2018-01-05T20:58:07.977Z,5.30
2018-01-05T21:00:35.418Z,5.00
2018-01-05T21:03:02.895Z,5.17
2018-01-05T21:05:30.352Z,3.73
2018-01-05T21:07:57.837Z,4.40
2018-01-05T21:10:25.377Z,3.70
2018-01-05T21:12:52.825Z,3.10
2018-01-05T21:15:20.307Z,3.70
2018-01-05T21:17:47.764Z,3.63
2018-01-05T21:20:15.243Z,3.77
2018-01-05T21:22:42.713Z,3.70
2018-01-05T21:25:10.214Z,3.20
2018-01-05T21:27:37.683Z,3.47
2018-01-05T21:30:05.261Z,3.30
2018-01-05T21:32:32.691Z,3.63
2018-01-05T21:35:00.171Z,3.20
2018-01-05T21:37:27.695Z,4.20
2018-01-05T21:39:55.173Z,5.00
2018-01-05T21:42:22.618Z,5.60
2018-01-05T21:44:50.104Z,5.63
2018-01-05T21:47:17.633Z,5.50
2018-01-05T21:49:45.093Z,6.47
2018-01-05T21:52:12.582Z,6.90
2018-01-05T21:54:40.043Z,5.60
2018-01-05T21:57:07.511Z,5.13
2018-01-05T21:59:34.968Z,5.10
2018-01-05T22:02:02.437Z,5.90
2018-01-05T22:04:29.894Z,6.40
2018-01-05T22:06:57.373Z,5.90
2018-01-05T22:09:24.834Z,5.50
2018-01-05T22:11:52.307Z,5.07
2018-01-05T22:14:19.777Z,7.50
2018-01-05T22:16:47.259Z,7.30
2018-01-05T22:19:14.717Z,7.70
2018-01-05T22:21:42.228Z,5.50
2018-01-05T22:24:09.784Z,5.37
2018-01-05T22:26:37.253Z,4.90
2018-01-05T22:29:04.795Z,5.00
2018-01-05T22:31:32.244Z,4.50
2018-01-05T22:33:59.724Z,5.90
2018-01-05T22:36:27.190Z,5.27
2018-01-05T22:38:54.672Z,4.73
2018-01-05T22:41:22.138Z,8.43
2018-01-05T22:43:49.629Z,3.73
2018-01-05T22:46:17.094Z,3.30
2018-01-05T22:48:44.565Z,3.70
2018-01-05T22:51:12.033Z,3.73
2018-01-05T22:53:39.563Z,3.00
2018-01-05T22:56:06.988Z,3.80
2018-01-05T22:58:34.461Z,3.33
2018-01-05T23:01:01.970Z,3.53
2018-01-05T23:03:29.500Z,3.13
2018-01-05T23:05:56.975Z,2.80
2018-01-05T23:08:24.433Z,3.07
2018-01-05T23:10:51.921Z,3.50
2018-01-05T23:13:19.375Z,2.23
2018-01-05T23:15:46.850Z,2.23
2018-01-05T23:18:14.296Z,2.30
2018-01-05T23:20:41.806Z,2.40
2018-01-05T23:23:09.265Z,2.07
2018-01-05T23:25:36.775Z,1.83
2018-01-05T23:28:04.257Z,2.20
2018-01-05T23:30:31.727Z,2.07
2018-01-05T23:32:59.218Z,2.03
2018-01-05T23:35:26.660Z,2.30
2018-01-05T23:37:54.140Z,2.57
2018-01-05T23:40:21.619Z,2.20
2018-01-05T23:42:49.106Z,1.70
2018-01-05T23:45:16.569Z,3.47
2018-01-05T23:47:44.035Z,2.27
2018-01-05T23:50:11.520Z,2.83
2018-01-05T23:52:39.155Z,2.27
2018-01-05T23:55:06.594Z,2.30
2018-01-05T23:57:34.145Z,2.60
